Terminal Aerodrome Forecast
Issued by NWS

Home | Current Version | Previous Version | Text Only | Print | Product List | Glossary On
Versions: 1 2 3 4 5 6 7 8 9 10 11 12 13 14 15 16 17 18 19 20
262
FTUS46 KSEW 241736
TAFPAE
TAF
KPAE 241736Z 2418/2518 33006KT P6SM SKC
     FM250300 01005KT P6SM SKC
     FM251200 01005KT P6SM FEW003
     FM251500 01005KT P6SM SCT250=

USA.gov is the U.S. government's official web portal to all federal, state and local government web resources and services.